Terminal Aerodrome Forecast
Issued by NWS

Home | Current Version | Previous Version | Text Only | Print | Product List | Glossary On
Versions: 1 2 3 4 5 6 7 8 9 10 11 12 13 14 15 16 17 18
000
FTUS43 KLSX 211100
TAFSUS
TAF
KSUS 211140Z 2112/2212 32010KT P6SM FEW020
     FM211500 32014G24KT P6SM FEW040
     FM220100 VRB04KT P6SM SKC
      TEMPO 2209/2212 4SM BR SCT005=

USA.gov is the U.S. government's official web portal to all federal, state and local government web resources and services.